Time;durP1;ratioP1;P1;durP2;ratioP2;P2;SDS_P1;SDS_P2;PMS_P1;PMS_P2;Temp;Humidity;BMP_temperature;BMP_pressure;BME280_temperature;BME280_humidity;BME280_pressure;Samples;Min_cycle;Max_cycle;Signal;HPM_P1;HPM_P2
2023/06/02 00:02:15;;;;;;;3.33;1.85;;;20.70;50.30;;;;;;5070897;28;20175;-71
2023/06/02 00:04:41;;;;;;;4.07;1.70;;;20.60;50.30;;;;;;5071963;28;20177;-71
2023/06/02 00:07:07;;;;;;;3.97;2.25;;;20.70;50.50;;;;;;5072112;28;20175;-70
2023/06/02 00:09:42;;;;;;;2.47;1.70;;;20.60;50.30;;;;;;5071632;28;20171;-70
2023/06/02 00:12:09;;;;;;;3.63;1.95;;;20.60;50.30;;;;;;5071808;28;20197;-69
2023/06/02 00:14:37;;;;;;;5.20;1.90;;;20.60;50.40;;;;;;5072273;28;20253;-70
2023/06/02 00:17:03;;;;;;;2.67;1.65;;;20.60;50.30;;;;;;5071315;28;20510;-70
2023/06/02 00:19:30;;;;;;;3.42;2.05;;;20.60;50.30;;;;;;5072393;28;20201;-70
2023/06/02 00:21:57;;;;;;;4.65;1.98;;;20.60;50.30;;;;;;5072220;28;20186;-70
2023/06/02 00:24:23;;;;;;;4.43;2.20;;;20.60;50.40;;;;;;5073603;28;20265;-70
2023/06/02 00:26:48;;;;;;;5.10;1.90;;;20.60;50.30;;;;;;5075848;28;20640;-69
2023/06/02 00:29:14;;;;;;;4.93;2.08;;;20.60;50.30;;;;;;5075104;28;20174;-70
2023/06/02 00:31:39;;;;;;;5.18;2.10;;;20.60;50.40;;;;;;5075769;28;20166;-71
2023/06/02 00:34:05;;;;;;;4.13;1.88;;;20.60;50.40;;;;;;5075933;28;20194;-72
2023/06/02 00:36:30;;;;;;;3.97;2.05;;;20.50;50.30;;;;;;5074940;28;20311;-72
2023/06/02 00:38:56;;;;;;;2.67;1.60;;;20.50;50.50;;;;;;5075482;28;20313;-70
2023/06/02 00:41:21;;;;;;;4.57;2.33;;;20.50;50.40;;;;;;5075282;28;20258;-70
2023/06/02 00:43:47;;;;;;;5.15;2.13;;;20.60;50.40;;;;;;5075005;28;20224;-71
2023/06/02 00:46:12;;;;;;;7.00;2.20;;;20.50;50.30;;;;;;5075185;28;20249;-70
2023/06/02 00:48:38;;;;;;;6.28;2.42;;;20.50;50.30;;;;;;5075506;28;20556;-70
2023/06/02 00:51:04;;;;;;;5.00;2.30;;;20.50;50.30;;;;;;5074968;28;20639;-69
2023/06/02 00:53:30;;;;;;;4.35;1.95;;;20.50;50.40;;;;;;5075223;28;20305;-70
2023/06/02 00:55:56;;;;;;;4.30;1.80;;;20.50;50.40;;;;;;5074191;28;20258;-69
2023/06/02 00:58:21;;;;;;;5.28;2.63;;;20.50;50.40;;;;;;5056492;28;20304;-71
2023/06/02 01:00:47;;;;;;;4.10;1.90;;;20.50;50.40;;;;;;5057420;28;20200;-72
2023/06/02 01:03:17;;;;;;;6.63;2.08;;;20.50;50.30;;;;;;5074813;28;20193;-73
2023/06/02 01:05:43;;;;;;;6.43;2.10;;;20.50;50.40;;;;;;5074847;28;20178;-72
2023/06/02 01:08:09;;;;;;;4.80;2.22;;;20.50;50.40;;;;;;5074987;28;20181;-70
2023/06/02 01:10:35;;;;;;;7.22;2.10;;;20.50;50.50;;;;;;5075277;28;20170;-69
2023/06/02 01:13:01;;;;;;;4.15;1.90;;;20.40;50.40;;;;;;5056544;28;20255;-69
2023/06/02 01:15:27;;;;;;;4.25;2.10;;;20.40;50.40;;;;;;5056848;28;20171;-70
2023/06/02 01:17:53;;;;;;;4.13;2.20;;;20.40;50.40;;;;;;5074017;28;20186;-70
2023/06/02 01:20:21;;;;;;;3.75;2.20;;;20.40;50.30;;;;;;5074084;28;20626;-70
2023/06/02 01:22:57;;;;;;;5.40;2.45;;;20.40;50.60;;;;;;5073867;28;20186;-69
2023/06/02 01:25:23;;;;;;;4.22;1.95;;;20.40;50.30;;;;;;5073353;28;20582;-70
2023/06/02 01:27:50;;;;;;;4.40;2.25;;;20.40;50.20;;;;;;5074028;28;20179;-69
2023/06/02 01:30:16;;;;;;;5.50;2.83;;;20.40;50.30;;;;;;5074333;28;20185;-70
2023/06/02 01:32:46;;;;;;;3.72;2.55;;;20.40;50.40;;;;;;5056350;28;20304;-72
2023/06/02 01:35:12;;;;;;;7.15;2.60;;;20.40;50.20;;;;;;5072474;28;20179;-72
2023/06/02 01:37:42;;;;;;;4.68;2.60;;;20.40;50.30;;;;;;5074576;28;20752;-71
2023/06/02 01:40:08;;;;;;;5.18;2.17;;;20.30;50.40;;;;;;5072519;28;20175;-70
2023/06/02 01:42:34;;;;;;;5.32;2.40;;;20.30;50.30;;;;;;5056623;28;20183;-71
2023/06/02 01:45:00;;;;;;;6.40;2.53;;;20.30;50.20;;;;;;5074695;28;20178;-71
2023/06/02 01:47:25;;;;;;;6.90;2.40;;;20.30;50.40;;;;;;5072347;28;20708;-70
2023/06/02 01:49:51;;;;;;;3.20;2.20;;;20.30;50.40;;;;;;5056740;28;20163;-70
2023/06/02 01:52:16;;;;;;;5.68;2.30;;;20.30;50.30;;;;;;5073851;28;20198;-69
2023/06/02 01:54:43;;;;;;;6.85;2.72;;;20.30;50.30;;;;;;5073579;28;20261;-70
2023/06/02 01:57:09;;;;;;;5.03;2.08;;;20.30;50.20;;;;;;5073782;28;20288;-71
2023/06/02 01:59:35;;;;;;;5.03;2.53;;;20.30;50.30;;;;;;5074259;28;20254;-72
2023/06/02 02:02:01;;;;;;;3.08;2.08;;;20.30;50.40;;;;;;5073604;28;20175;-73
2023/06/02 02:04:26;;;;;;;4.97;2.17;;;20.30;50.30;;;;;;5073917;28;20209;-72
2023/06/02 02:06:52;;;;;;;4.00;2.33;;;20.30;50.40;;;;;;5074023;28;20652;-72
2023/06/02 02:09:18;;;;;;;5.10;2.17;;;20.30;50.40;;;;;;5073029;28;20205;-70
2023/06/02 02:11:43;;;;;;;5.13;2.20;;;20.20;50.40;;;;;;5073849;28;20626;-70
2023/06/02 02:14:09;;;;;;;4.13;2.05;;;20.20;50.30;;;;;;5073773;28;20227;-70
2023/06/02 02:16:35;;;;;;;5.15;2.40;;;20.20;50.40;;;;;;5073380;28;20178;-71
2023/06/02 02:19:01;;;;;;;5.28;2.70;;;20.20;50.40;;;;;;5073747;28;20217;-71
2023/06/02 02:21:26;;;;;;;3.95;2.20;;;20.20;50.20;;;;;;5073519;28;20193;-70
2023/06/02 02:23:53;;;;;;;7.15;2.42;;;20.20;50.90;;;;;;5072928;28;20687;-70
2023/06/02 02:26:18;;;;;;;6.38;2.70;;;20.20;50.40;;;;;;5073352;28;20167;-70
2023/06/02 02:28:45;;;;;;;3.75;2.00;;;20.20;50.30;;;;;;5073800;28;20227;-69
2023/06/02 02:31:11;;;;;;;4.07;1.95;;;20.20;50.20;;;;;;5071561;28;20182;-70
2023/06/02 02:33:36;;;;;;;5.45;2.13;;;20.20;50.30;;;;;;5073528;28;20237;-71
2023/06/02 02:36:02;;;;;;;5.30;2.30;;;20.20;50.30;;;;;;5072743;28;20251;-71
2023/06/02 02:38:27;;;;;;;4.60;2.03;;;20.20;50.30;;;;;;5072856;28;20237;-72
2023/06/02 02:40:53;;;;;;;6.18;2.00;;;20.20;50.30;;;;;;5073264;28;20259;-70
2023/06/02 02:43:19;;;;;;;3.67;2.20;;;20.20;50.30;;;;;;5072411;28;20182;-70
2023/06/02 02:45:45;;;;;;;4.30;2.28;;;20.20;50.30;;;;;;5073423;28;20231;-70
2023/06/02 02:48:10;;;;;;;6.13;2.28;;;20.20;50.30;;;;;;5072912;28;20170;-71
2023/06/02 02:50:36;;;;;;;4.90;2.50;;;20.10;50.20;;;;;;5072500;28;20194;-70
2023/06/02 02:53:02;;;;;;;3.50;2.08;;;20.10;50.30;;;;;;5073185;28;20217;-69
2023/06/02 02:55:28;;;;;;;4.15;2.50;;;20.10;50.30;;;;;;5072480;28;20175;-70
2023/06/02 02:57:54;;;;;;;4.65;2.00;;;20.10;50.30;;;;;;5072519;28;20179;-71
2023/06/02 03:00:20;;;;;;;6.03;2.40;;;20.10;50.20;;;;;;5072928;28;20174;-73
2023/06/02 03:02:46;;;;;;;6.20;2.42;;;20.10;50.30;;;;;;5072886;28;20189;-73
2023/06/02 03:05:13;;;;;;;3.60;2.22;;;20.10;50.30;;;;;;5071902;28;20175;-72
2023/06/02 03:07:44;;;;;;;4.57;2.63;;;20.10;50.30;;;;;;5072974;28;20178;-71
2023/06/02 03:10:10;;;;;;;4.53;2.28;;;20.10;50.20;;;;;;5072516;28;20729;-70
2023/06/02 03:12:35;;;;;;;4.93;1.83;;;20.10;50.30;;;;;;5072294;28;20309;-71
2023/06/02 03:15:01;;;;;;;4.97;2.00;;;20.10;50.20;;;;;;5072797;28;20177;-70
2023/06/02 03:17:27;;;;;;;2.60;2.25;;;20.10;50.30;;;;;;5072597;28;20194;-70
2023/06/02 03:19:54;;;;;;;4.25;2.20;;;20.10;50.30;;;;;;5070834;28;20174;-71
2023/06/02 03:22:20;;;;;;;5.60;2.05;;;20.10;50.30;;;;;;5071335;28;20178;-70
2023/06/02 03:24:46;;;;;;;4.07;2.17;;;20.00;50.20;;;;;;5072490;28;20244;-70
2023/06/02 03:27:13;;;;;;;4.28;2.05;;;20.00;50.10;;;;;;5071862;28;20277;-70
2023/06/02 03:29:39;;;;;;;3.63;2.28;;;20.00;50.30;;;;;;5072762;28;20171;-70
2023/06/02 03:32:09;;;;;;;3.55;1.80;;;20.00;50.20;;;;;;5071155;28;20178;-72
2023/06/02 03:34:34;;;;;;;4.32;2.30;;;20.00;50.30;;;;;;5072565;28;20182;-72
2023/06/02 03:37:01;;;;;;;4.07;2.60;;;20.00;50.20;;;;;;5072241;28;20288;-71
2023/06/02 03:39:26;;;;;;;4.60;2.40;;;20.00;50.20;;;;;;5071499;28;20178;-71
2023/06/02 03:41:52;;;;;;;4.57;2.38;;;19.90;50.20;;;;;;5072389;28;20215;-70
2023/06/02 03:44:18;;;;;;;4.00;2.10;;;20.00;50.30;;;;;;5071984;28;20178;-71
2023/06/02 03:46:43;;;;;;;3.75;2.20;;;20.00;50.20;;;;;;5071853;28;20174;-70
2023/06/02 03:49:09;;;;;;;3.63;2.20;;;20.00;50.20;;;;;;5072095;28;20197;-71
2023/06/02 03:51:35;;;;;;;4.63;2.28;;;19.90;50.20;;;;;;5072318;28;20186;-69
2023/06/02 03:54:01;;;;;;;7.30;2.60;;;19.90;50.20;;;;;;5071453;28;20661;-70
2023/06/02 03:56:26;;;;;;;3.28;2.03;;;19.90;50.10;;;;;;5072167;28;20201;-70
2023/06/02 03:58:52;;;;;;;3.67;1.88;;;19.90;50.10;;;;;;5075403;28;20174;-70
2023/06/02 04:01:17;;;;;;;3.63;1.83;;;19.90;50.10;;;;;;5077925;28;20170;-72
2023/06/02 04:03:43;;;;;;;4.05;1.98;;;19.90;50.00;;;;;;5078703;28;20177;-71
2023/06/02 04:06:09;;;;;;;3.25;2.05;;;19.90;50.10;;;;;;5078487;28;20182;-71
2023/06/02 04:08:35;;;;;;;4.57;2.03;;;19.90;50.10;;;;;;5078182;28;20186;-70
2023/06/02 04:11:00;;;;;;;4.22;1.80;;;19.90;50.10;;;;;;5079031;28;20566;-69
2023/06/02 04:13:26;;;;;;;4.90;2.10;;;19.90;50.10;;;;;;5078680;28;20350;-69
2023/06/02 04:15:52;;;;;;;4.82;2.40;;;19.90;50.00;;;;;;5077912;28;20540;-70
2023/06/02 04:18:18;;;;;;;4.50;2.15;;;19.90;50.00;;;;;;5078288;28;20167;-69
2023/06/02 04:20:43;;;;;;;4.63;2.00;;;19.90;50.10;;;;;;5079112;28;20174;-70
2023/06/02 04:23:09;;;;;;;3.67;2.25;;;19.90;50.00;;;;;;5077533;28;20178;-69
2023/06/02 04:25:35;;;;;;;4.47;2.05;;;19.90;49.90;;;;;;5078868;28;20249;-69
2023/06/02 04:28:00;;;;;;;6.53;2.40;;;19.90;50.00;;;;;;5078441;28;20269;-69
2023/06/02 04:30:26;;;;;;;5.63;2.03;;;19.90;50.10;;;;;;5077603;28;20311;-71
2023/06/02 04:32:52;;;;;;;4.00;2.05;;;19.90;50.00;;;;;;5078547;28;20221;-72
2023/06/02 04:35:17;;;;;;;4.30;1.92;;;19.90;50.00;;;;;;5078216;28;20171;-72
2023/06/02 04:37:46;;;;;;;4.20;1.98;;;19.90;50.00;;;;;;5077589;28;20226;-71
2023/06/02 04:40:13;;;;;;;3.55;2.10;;;19.90;50.10;;;;;;5078440;28;20171;-70
2023/06/02 04:42:39;;;;;;;4.40;2.20;;;19.90;50.10;;;;;;5077956;28;20182;-71
2023/06/02 04:45:15;;;;;;;7.47;3.15;;;19.90;50.00;;;;;;5078590;28;20579;-71
2023/06/02 04:47:44;;;;;;;4.72;2.25;;;19.80;50.00;;;;;;5078365;28;20198;-70
2023/06/02 04:50:10;;;;;;;5.82;2.03;;;19.80;50.10;;;;;;5077350;28;20197;-70
2023/06/02 04:52:40;;;;;;;4.80;2.00;;;19.80;49.90;;;;;;5077024;28;20214;-69
2023/06/02 04:55:09;;;;;;;4.40;1.90;;;19.80;50.00;;;;;;5078241;28;20525;-70
2023/06/02 04:57:36;;;;;;;5.88;2.55;;;19.80;50.00;;;;;;5077666;28;20178;-71
2023/06/02 05:00:03;;;;;;;5.35;2.35;;;19.80;49.90;;;;;;5078500;28;20179;-72
2023/06/02 05:02:29;;;;;;;5.35;2.42;;;19.80;50.00;;;;;;5077912;28;20248;-73
2023/06/02 05:04:55;;;;;;;5.15;2.13;;;19.80;49.90;;;;;;5077799;28;20178;-72
2023/06/02 05:07:20;;;;;;;4.20;2.20;;;19.80;49.80;;;;;;5077978;28;20531;-70
2023/06/02 05:09:46;;;;;;;5.05;2.20;;;19.80;49.80;;;;;;5076508;28;20638;-70
2023/06/02 05:12:12;;;;;;;4.07;2.20;;;19.80;49.90;;;;;;5073987;28;20206;-70
2023/06/02 05:14:37;;;;;;;4.75;2.00;;;19.80;49.90;;;;;;5075318;28;20198;-71
2023/06/02 05:17:04;;;;;;;4.43;1.90;;;19.80;49.90;;;;;;5074893;28;20168;-71
2023/06/02 05:19:30;;;;;;;5.45;2.05;;;19.80;49.80;;;;;;5073821;28;20182;-70
2023/06/02 05:21:55;;;;;;;3.95;2.00;;;19.80;49.90;;;;;;5075027;28;20261;-71
2023/06/02 05:24:21;;;;;;;4.57;2.05;;;19.80;49.90;;;;;;5074762;28;20174;-70
2023/06/02 05:26:46;;;;;;;6.65;2.38;;;19.80;49.90;;;;;;5074397;28;20193;-70
2023/06/02 05:29:12;;;;;;;4.40;2.17;;;19.80;49.90;;;;;;5074335;28;20543;-71
2023/06/02 05:31:37;;;;;;;4.82;2.38;;;19.80;49.90;;;;;;5074859;28;20167;-72
2023/06/02 05:34:03;;;;;;;3.47;1.98;;;19.80;49.90;;;;;;5074693;28;20210;-74
2023/06/02 05:36:28;;;;;;;8.10;2.67;;;19.80;49.90;;;;;;5074908;28;20170;-73
2023/06/02 05:38:54;;;;;;;6.15;2.42;;;19.80;50.60;;;;;;5074097;28;20232;-72
2023/06/02 05:41:20;;;;;;;4.03;2.00;;;19.80;49.90;;;;;;5074618;28;20182;-71
2023/06/02 05:43:45;;;;;;;4.05;2.10;;;19.80;50.00;;;;;;5074900;28;20175;-72
2023/06/02 05:46:11;;;;;;;4.55;2.17;;;19.80;49.90;;;;;;5073912;28;20244;-72
2023/06/02 05:48:38;;;;;;;4.25;2.03;;;19.80;49.90;;;;;;5075100;28;20253;-71
2023/06/02 05:51:03;;;;;;;5.32;2.20;;;19.80;49.80;;;;;;5074891;28;20188;-70
2023/06/02 05:53:29;;;;;;;4.80;2.08;;;19.80;49.70;;;;;;5073768;28;20218;-70
2023/06/02 05:55:55;;;;;;;5.20;1.92;;;19.80;49.70;;;;;;5074838;28;20296;-70
2023/06/02 05:58:20;;;;;;;5.68;2.40;;;19.80;49.70;;;;;;5074314;28;20171;-72
2023/06/02 06:00:46;;;;;;;4.18;1.77;;;19.80;49.80;;;;;;5073891;28;20178;-72
2023/06/02 06:03:12;;;;;;;4.55;2.00;;;19.80;49.70;;;;;;5074328;28;20591;-74
2023/06/02 06:05:38;;;;;;;5.05;2.13;;;19.80;49.60;;;;;;5074614;28;20174;-72
2023/06/02 06:08:03;;;;;;;5.65;1.90;;;19.80;49.70;;;;;;5073789;28;20181;-70
2023/06/02 06:10:29;;;;;;;7.13;2.45;;;19.80;49.70;;;;;;5074127;28;20265;-71
2023/06/02 06:12:55;;;;;;;5.15;2.25;;;19.70;50.30;;;;;;5074383;28;20237;-71
2023/06/02 06:15:20;;;;;;;4.03;2.13;;;19.80;49.80;;;;;;5073093;28;20194;-72
2023/06/02 06:17:50;;;;;;;3.60;1.95;;;19.80;50.30;;;;;;5074402;28;20170;-72
2023/06/02 06:20:16;;;;;;;3.55;1.95;;;19.80;49.70;;;;;;5074054;28;20281;-71
2023/06/02 06:22:42;;;;;;;3.40;1.95;;;19.80;50.50;;;;;;5073351;28;20199;-71
2023/06/02 06:25:08;;;;;;;5.80;2.20;;;19.80;49.70;;;;;;5073708;28;20202;-70
2023/06/02 06:27:34;;;;;;;7.53;2.22;;;19.80;49.80;;;;;;5072795;28;20182;-72
2023/06/02 06:29:59;;;;;;;4.68;1.88;;;19.80;49.90;;;;;;5073246;28;20177;-71
2023/06/02 06:32:25;;;;;;;6.22;2.45;;;19.80;49.90;;;;;;5073879;28;20581;-72
2023/06/02 06:34:50;;;;;;;4.70;1.92;;;19.80;49.90;;;;;;5074042;28;20177;-72
2023/06/02 06:37:16;;;;;;;6.10;2.58;;;19.80;50.00;;;;;;5072782;28;20233;-71
2023/06/02 06:39:41;;;;;;;5.85;2.35;;;19.80;49.90;;;;;;5073924;28;20170;-72
2023/06/02 06:42:07;;;;;;;3.92;1.92;;;19.80;49.90;;;;;;5072719;28;20540;-71
2023/06/02 06:44:33;;;;;;;5.20;2.35;;;19.80;50.00;;;;;;5073781;28;20637;-71
2023/06/02 06:46:58;;;;;;;6.30;2.30;;;19.80;49.90;;;;;;5073538;28;20710;-71
2023/06/02 06:49:24;;;;;;;4.00;2.20;;;19.80;50.10;;;;;;5072693;28;20213;-70
2023/06/02 06:51:49;;;;;;;7.07;2.13;;;19.80;50.00;;;;;;5074062;28;20261;-69
2023/06/02 06:54:15;;;;;;;5.22;2.38;;;19.80;50.10;;;;;;5073273;28;20631;-70
2023/06/02 06:56:43;;;;;;;5.82;2.60;;;19.80;50.10;;;;;;5072646;28;20167;-70
2023/06/02 06:59:09;;;;;;;4.85;2.13;;;19.80;50.10;;;;;;5073007;28;20652;-73
2023/06/02 07:01:35;;;;;;;3.42;2.13;;;19.80;50.10;;;;;;5073323;28;20680;-73
2023/06/02 07:04:00;;;;;;;5.88;2.60;;;19.80;50.10;;;;;;5072488;28;20219;-72
2023/06/02 07:06:26;;;;;;;3.97;1.85;;;19.80;50.10;;;;;;5072970;28;20210;-71
2023/06/02 07:08:52;;;;;;;4.38;2.10;;;19.80;50.10;;;;;;5072166;28;20178;-70
2023/06/02 07:11:18;;;;;;;4.60;2.10;;;19.80;50.20;;;;;;5070976;28;20649;-70
2023/06/02 07:13:43;;;;;;;4.20;2.35;;;19.80;50.20;;;;;;5072958;28;20206;-69
2023/06/02 07:16:09;;;;;;;3.42;1.88;;;19.90;50.30;;;;;;5073124;28;20173;-70
2023/06/02 07:18:34;;;;;;;4.75;2.38;;;19.90;50.30;;;;;;5072349;28;20186;-72
2023/06/02 07:21:00;;;;;;;5.47;1.85;;;19.90;50.30;;;;;;5073084;28;20206;-70
2023/06/02 07:23:26;;;;;;;4.13;2.65;;;19.90;50.40;;;;;;5072921;28;20178;-67
2023/06/02 07:25:51;;;;;;;8.00;2.60;;;19.90;50.60;;;;;;5072232;28;20257;-66
2023/06/02 07:28:17;;;;;;;5.07;2.13;;;19.90;50.50;;;;;;5072590;28;20555;-67
2023/06/02 07:30:47;;;;;;;4.78;2.20;;;19.80;50.30;;;;;;5073087;28;20618;-68
2023/06/02 07:33:16;;;;;;;4.55;2.17;;;19.90;50.20;;;;;;5071234;28;20715;-69
2023/06/02 07:35:41;;;;;;;7.10;2.28;;;19.90;50.10;;;;;;5073103;28;20170;-69
2023/06/02 07:38:07;;;;;;;6.68;2.28;;;19.90;50.00;;;;;;5072410;28;20237;-68
2023/06/02 07:40:33;;;;;;;3.80;2.25;;;19.90;50.10;;;;;;5072284;28;20170;-69
2023/06/02 07:42:58;;;;;;;5.25;2.00;;;19.90;50.00;;;;;;5073008;28;20182;-67
2023/06/02 07:45:24;;;;;;;4.47;2.13;;;19.90;50.00;;;;;;5072005;28;20174;-68
2023/06/02 07:47:49;;;;;;;4.85;2.17;;;19.80;49.80;;;;;;5072868;28;20178;-67
2023/06/02 07:50:15;;;;;;;5.57;2.22;;;19.90;49.80;;;;;;5072464;28;20171;-67
2023/06/02 07:52:40;;;;;;;5.15;2.15;;;19.90;49.70;;;;;;5071817;28;20783;-67
2023/06/02 07:55:06;;;;;;;5.00;2.22;;;19.90;49.70;;;;;;5072417;28;20163;-67
2023/06/02 07:57:32;;;;;;;4.10;1.90;;;19.90;49.70;;;;;;5072604;28;20208;-68
2023/06/02 07:59:57;;;;;;;5.50;1.98;;;20.00;49.70;;;;;;5072020;28;20629;-68
2023/06/02 08:02:23;;;;;;;5.47;2.10;;;19.90;49.60;;;;;;5072550;28;20613;-68
2023/06/02 08:04:48;;;;;;;4.07;1.98;;;20.00;49.70;;;;;;5072870;28;20578;-67
2023/06/02 08:07:14;;;;;;;6.60;1.90;;;19.90;49.70;;;;;;5071678;28;20575;-68
2023/06/02 08:09:39;;;;;;;6.22;2.40;;;20.00;49.60;;;;;;5072611;28;20701;-67
2023/06/02 08:12:05;;;;;;;5.80;2.03;;;20.00;49.60;;;;;;5072353;28;20171;-67
2023/06/02 08:14:31;;;;;;;5.80;2.53;;;20.00;49.60;;;;;;5071910;28;20273;-67
2023/06/02 08:16:56;;;;;;;5.75;1.77;;;20.00;49.60;;;;;;5072533;28;20175;-66
2023/06/02 08:19:25;;;;;;;5.43;2.40;;;20.00;49.50;;;;;;5072191;28;20167;-67
2023/06/02 08:21:51;;;;;;;5.13;2.47;;;20.00;49.50;;;;;;5071856;28;20171;-67
2023/06/02 08:24:20;;;;;;;5.13;1.98;;;20.00;49.60;;;;;;5072049;28;20197;-68
2023/06/02 08:26:48;;;;;;;6.55;2.40;;;20.00;49.50;;;;;;5072377;28;20205;-68
2023/06/02 08:29:14;;;;;;;5.28;2.13;;;20.10;49.60;;;;;;5071554;28;20231;-67
2023/06/02 08:31:40;;;;;;;7.88;2.40;;;20.20;49.70;;;;;;5072445;28;20227;-67
2023/06/02 08:34:08;;;;;;;8.25;2.25;;;20.20;49.70;;;;;;5072245;28;20206;-69
2023/06/02 08:36:33;;;;;;;5.80;2.15;;;20.10;49.60;;;;;;5071643;28;20314;-67
2023/06/02 08:39:05;;;;;;;7.22;2.42;;;20.20;49.70;;;;;;5072230;28;20703;-67
2023/06/02 08:41:32;;;;;;;4.20;1.77;;;20.20;49.80;;;;;;5072167;28;20178;-67
2023/06/02 08:43:58;;;;;;;6.28;2.35;;;20.20;49.80;;;;;;5070805;28;20201;-68
2023/06/02 08:46:24;;;;;;;5.95;2.20;;;20.20;49.90;;;;;;5075787;28;20697;-67
2023/06/02 08:48:55;;;;;;;7.15;2.10;;;20.30;50.00;;;;;;5057648;28;20182;-66
2023/06/02 08:51:22;;;;;;;6.03;2.10;;;20.30;50.10;;;;;;5074457;28;20181;-64
2023/06/02 08:53:47;;;;;;;4.70;2.17;;;20.40;50.20;;;;;;5075628;28;20232;-65
2023/06/02 08:56:14;;;;;;;3.88;1.90;;;20.30;50.30;;;;;;5074999;28;20181;-66
2023/06/02 08:58:40;;;;;;;3.75;2.03;;;20.30;50.30;;;;;;5074476;28;20179;-67
2023/06/02 09:01:05;;;;;;;6.38;2.50;;;20.30;50.50;;;;;;5074345;28;20193;-68
2023/06/02 09:03:31;;;;;;;6.63;1.67;;;20.30;50.50;;;;;;5074897;28;20252;-67
2023/06/02 09:05:58;;;;;;;4.35;1.73;;;20.40;50.60;;;;;;5075547;28;20178;-67
2023/06/02 09:08:23;;;;;;;4.65;1.70;;;20.40;50.70;;;;;;5075173;28;20197;-68
2023/06/02 09:10:49;;;;;;;4.78;2.00;;;20.40;50.60;;;;;;5073835;28;20637;-68
2023/06/02 09:13:33;;;;;;;3.42;1.40;;;20.40;50.70;;;;;;5075183;28;20304;-69
2023/06/02 09:16:03;;;;;;;6.75;2.22;;;20.40;50.80;;;;;;5075513;28;20179;-68
2023/06/02 09:18:28;;;;;;;6.88;2.22;;;20.30;50.80;;;;;;5074353;28;20181;-68
2023/06/02 09:20:58;;;;;;;8.55;2.20;;;20.30;50.90;;;;;;5073710;28;20182;-68
2023/06/02 09:23:26;;;;;;;4.97;1.75;;;20.40;50.90;;;;;;5075057;28;20190;-67
2023/06/02 09:25:52;;;;;;;4.97;2.00;;;20.40;50.90;;;;;;5073541;28;20256;-65
2023/06/02 09:28:17;;;;;;;6.25;2.13;;;20.40;51.00;;;;;;5074987;28;20269;-66
2023/06/02 09:30:43;;;;;;;6.40;2.47;;;20.40;51.00;;;;;;5075250;28;20175;-67
2023/06/02 09:33:12;;;;;;;4.90;2.33;;;20.40;50.90;;;;;;5074051;28;20236;-67
2023/06/02 09:35:42;;;;;;;7.65;2.60;;;20.40;50.90;;;;;;5075619;28;20239;-67
2023/06/02 09:38:10;;;;;;;6.60;1.92;;;20.50;51.00;;;;;;5073590;28;20288;-67
2023/06/02 09:40:36;;;;;;;3.88;1.88;;;20.50;51.10;;;;;;5074751;28;20262;-66
2023/06/02 09:43:06;;;;;;;5.13;2.13;;;20.50;51.10;;;;;;5074735;28;20221;-66
2023/06/02 09:45:32;;;;;;;6.55;2.15;;;20.50;51.10;;;;;;5073957;28;20170;-66
2023/06/02 09:47:58;;;;;;;4.55;1.85;;;20.50;51.10;;;;;;5074809;28;20605;-68
2023/06/02 09:50:37;;;;;;;4.00;2.30;;;20.50;51.10;;;;;;5074600;28;20267;-67
2023/06/02 09:53:06;;;;;;;6.15;2.65;;;20.50;51.20;;;;;;5074183;28;20308;-66
2023/06/02 09:55:33;;;;;;;6.95;2.25;;;20.50;51.20;;;;;;5074633;28;20186;-67
2023/06/02 09:58:00;;;;;;;5.25;1.92;;;20.60;51.40;;;;;;5074204;28;20232;-68
2023/06/02 10:00:25;;;;;;;6.15;2.22;;;20.60;51.90;;;;;;5073408;28;20210;-68
2023/06/02 10:02:51;;;;;;;4.53;1.85;;;20.60;51.40;;;;;;5074385;28;20212;-71
2023/06/02 10:05:17;;;;;;;4.22;1.88;;;20.60;51.40;;;;;;5074413;28;20170;-69
2023/06/02 10:07:57;;;;;;;4.45;2.13;;;20.60;51.50;;;;;;5073917;28;20178;-68
2023/06/02 10:10:29;;;;;;;5.70;1.83;;;20.60;51.30;;;;;;5072964;28;20595;-67
2023/06/02 10:13:13;;;;;;;5.65;1.95;;;20.60;51.10;;;;;;5074069;28;20600;-71
2023/06/02 10:15:51;;;;;;;4.88;2.33;;;20.60;51.00;;;;;;5074288;28;20178;-64
2023/06/02 10:18:28;;;;;;;4.65;2.13;;;20.50;50.80;;;;;;5073987;28;20236;-64
2023/06/02 10:21:13;;;;;;;5.53;2.72;;;20.50;50.80;;;;;;5072252;28;20257;-64
2023/06/02 10:24:10;;;;;;;5.43;2.50;;;20.50;50.70;;;;;;5073938;28;20176;-63
2023/06/02 10:27:06;;;;;;;6.18;2.70;;;20.50;50.70;;;;;;5073561;28;20208;-70
2023/06/02 10:29:33;;;;;;;6.13;2.60;;;20.50;50.70;;;;;;5073867;28;20331;-69
2023/06/02 10:31:59;;;;;;;5.25;2.83;;;20.50;50.60;;;;;;5072947;28;20178;-70
2023/06/02 10:34:37;;;;;;;5.15;3.20;;;20.60;50.70;;;;;;5055152;28;20210;-70
2023/06/02 10:37:03;;;;;;;6.53;2.85;;;20.60;50.70;;;;;;5073711;28;20317;-71
2023/06/02 10:39:35;;;;;;;4.78;2.42;;;20.60;50.80;;;;;;5073405;28;20300;-70
2023/06/02 10:42:10;;;;;;;7.00;2.75;;;20.60;50.80;;;;;;5072906;28;20220;-70
2023/06/02 10:44:36;;;;;;;9.25;2.95;;;20.70;50.90;;;;;;5073774;28;20174;-66
2023/06/02 10:47:17;;;;;;;6.38;2.60;;;20.70;50.90;;;;;;5073966;28;20227;-65
2023/06/02 10:49:55;;;;;;;7.93;3.00;;;20.70;51.00;;;;;;5072912;28;20232;-66
2023/06/02 10:52:21;;;;;;;7.88;3.20;;;20.70;50.90;;;;;;5072959;28;20262;-65
2023/06/02 10:55:13;;;;;;;8.45;3.63;;;20.70;51.00;;;;;;5073095;28;20567;-66
2023/06/02 10:58:03;;;;;;;10.32;3.40;;;20.60;50.70;;;;;;5073458;28;20178;-66
2023/06/02 11:00:43;;;;;;;10.77;3.35;;;20.70;50.80;;;;;;5073091;28;20174;-68
2023/06/02 11:03:14;;;;;;;6.88;2.97;;;20.70;51.50;;;;;;5072309;28;20178;-67
2023/06/02 11:05:40;;;;;;;6.05;2.72;;;20.80;50.80;;;;;;5073127;28;20536;-66
2023/06/02 11:08:11;;;;;;;6.57;2.97;;;20.70;50.80;;;;;;5072187;28;20254;-66
2023/06/02 11:10:46;;;;;;;5.32;3.38;;;20.80;50.90;;;;;;5072501;28;20178;-65
2023/06/02 11:13:15;;;;;;;8.45;2.90;;;20.80;51.00;;;;;;5072890;28;20206;-65
2023/06/02 11:15:56;;;;;;;6.72;3.22;;;20.80;51.00;;;;;;5073198;28;20175;-67
2023/06/02 11:18:22;;;;;;;5.45;3.00;;;20.80;51.10;;;;;;5071859;28;20633;-66
2023/06/02 11:20:51;;;;;;;6.13;3.08;;;20.80;51.10;;;;;;5073257;28;20680;-66
2023/06/02 11:23:19;;;;;;;6.13;2.75;;;20.80;51.10;;;;;;5072720;28;20575;-67
2023/06/02 11:25:45;;;;;;;6.90;3.03;;;20.90;51.20;;;;;;5072841;28;20175;-66
2023/06/02 11:28:20;;;;;;;5.85;2.58;;;20.80;51.20;;;;;;5071524;28;20553;-66
2023/06/02 11:30:46;;;;;;;7.05;2.60;;;20.90;51.30;;;;;;5072310;28;20268;-66
2023/06/02 11:33:12;;;;;;;5.38;2.83;;;21.00;51.60;;;;;;5072702;28;20619;-67
2023/06/02 11:35:37;;;;;;;5.60;2.70;;;21.00;51.10;;;;;;5072893;28;20744;-68
2023/06/02 11:38:08;;;;;;;6.40;3.22;;;21.00;51.30;;;;;;5071862;28;20215;-67
2023/06/02 11:40:34;;;;;;;6.63;2.63;;;21.00;51.30;;;;;;5072612;28;20258;-68
2023/06/02 11:43:00;;;;;;;5.88;2.42;;;21.00;51.30;;;;;;5072806;28;20186;-67
2023/06/02 11:45:26;;;;;;;6.13;2.90;;;21.10;51.40;;;;;;5071606;28;20189;-67
2023/06/02 11:48:07;;;;;;;5.80;3.13;;;21.00;51.50;;;;;;5071759;28;20171;-67
2023/06/02 11:50:33;;;;;;;5.78;2.83;;;21.00;51.50;;;;;;5071191;28;20178;-66
2023/06/02 11:52:58;;;;;;;6.05;2.55;;;21.10;51.50;;;;;;5069128;28;20228;-67
2023/06/02 11:55:28;;;;;;;6.13;2.90;;;21.00;51.50;;;;;;5071014;28;20248;-67
2023/06/02 11:57:59;;;;;;;6.88;2.58;;;21.00;51.60;;;;;;5071307;28;20236;-68
2023/06/02 12:00:25;;;;;;;8.48;2.63;;;21.00;51.50;;;;;;5068710;28;20163;-69
2023/06/02 12:02:53;;;;;;;6.40;2.88;;;21.00;51.60;;;;;;5053746;28;20212;-68
2023/06/02 12:05:35;;;;;;;4.45;2.67;;;20.90;51.60;;;;;;5072273;28;20186;-68
2023/06/02 12:08:11;;;;;;;4.97;2.05;;;20.90;51.60;;;;;;5072871;28;20178;-67
2023/06/02 12:10:37;;;;;;;6.22;2.78;;;21.00;51.60;;;;;;5072733;28;20178;-67
2023/06/02 12:13:03;;;;;;;4.22;2.42;;;21.00;51.60;;;;;;5071756;28;20264;-67
2023/06/02 12:15:32;;;;;;;3.65;2.45;;;21.00;51.60;;;;;;5072117;28;20171;-68
2023/06/02 12:18:05;;;;;;;4.97;2.53;;;20.90;51.70;;;;;;5072438;28;20254;-68
2023/06/02 12:20:39;;;;;;;6.47;2.20;;;20.90;51.70;;;;;;5074211;28;20174;-68
2023/06/02 12:23:04;;;;;;;4.35;2.53;;;20.90;51.70;;;;;;5076665;28;20179;-67
2023/06/02 12:25:30;;;;;;;3.05;2.30;;;20.90;51.80;;;;;;5076128;28;20675;-68
2023/06/02 12:28:11;;;;;;;5.15;2.17;;;20.90;51.80;;;;;;5075765;28;20178;-67
2023/06/02 12:30:36;;;;;;;4.82;2.58;;;20.90;51.90;;;;;;5076330;28;20178;-68
2023/06/02 12:33:09;;;;;;;4.97;2.58;;;20.90;51.90;;;;;;5076337;28;20243;-68
2023/06/02 12:35:35;;;;;;;5.05;2.33;;;20.90;51.90;;;;;;5075590;28;20625;-69
2023/06/02 12:38:03;;;;;;;4.13;2.40;;;20.90;51.90;;;;;;5076005;28;20257;-68
2023/06/02 12:40:28;;;;;;;4.25;2.13;;;20.90;51.80;;;;;;5075831;28;20193;-68
2023/06/02 12:42:54;;;;;;;4.93;2.55;;;21.00;51.90;;;;;;5075303;28;20179;-67
2023/06/02 12:45:20;;;;;;;4.35;2.30;;;20.90;51.90;;;;;;5076003;28;20163;-68
2023/06/02 12:47:45;;;;;;;4.82;2.28;;;21.00;51.90;;;;;;5075435;28;20235;-68
2023/06/02 12:50:11;;;;;;;3.45;2.13;;;20.90;51.90;;;;;;5075721;28;20257;-67